Página principal
METAR-TAF:

METAR-TAF

Aeroportos :

Nouméa, Nova Caledónia

latitude: 22-15-30S, longitude: 166-28-22E, altura: 3 m

METAR: em falta

Hora: 15:47 (04:47 UTC)

Previsão

O boletim foi feito há 11 horas e 47 minutos, às 17:00 UTC
Previsão válida de 13 às 18 UTC a 14 às 18 UTC
Vento 5 kt de es-nordeste
Visibilidade 10 km ou mais
Poucas nuvensa uma altura de 4000 ft
Tornando-se
de 13 às 22 UTC a 13 às 24 UTC
Vento 16 kt de sudeste
Tornando-se
de 14 às 08 UTC a 14 às 10 UTC
Vento 5 kt de es-nordeste

TAF: NWWM 131700Z 1318/1418 07005KT 9999 FEW040 BECMG 1322/1324 13016KT BECMG 1408/1410 07005KT

Observações e previsões do tempo de mais de 4000 aeroportos (mensagens METAR e TAF).

As estações disponíveis são os pontos amarelos e vermelhos sobre o mapa.

Mova o rato sobre o mapa para ver o nome da estação.

Depois clique no ponto para visualizar as observações e previsões meteorológicas.

Para alterar o mapa : clique nos botões verdes com uma cruz preta para aumentar o zoom; no botão verde com uma pitada de zoom; ou nas setas verdes para mapas adjacentes.


METAR-TAF: